createdAt,value
2022-10-22T00:00:01.793Z,1001.5124616514331
2022-10-22T00:15:01.492Z,1001.7087085186416
2022-10-22T00:30:02.166Z,1001.9480060131054
2022-10-22T00:45:01.797Z,1001.8385441319542
2022-10-22T01:00:01.443Z,1001.9999498759965
2022-10-22T01:15:02.092Z,1002.0754289547463
2022-10-22T01:30:01.801Z,1002.1938462544706
2022-10-22T01:45:01.483Z,1002.024699474794
2022-10-22T02:00:01.156Z,1002.0849574997671
2022-10-22T02:15:01.785Z,1002.1086745946815
2022-10-22T02:30:01.582Z,1002.0630262021754
2022-10-22T02:45:01.307Z,1002.032184875323
2022-10-22T03:00:01.904Z,1001.9325626341752
2022-10-22T03:15:01.621Z,1001.8935040735784
2022-10-22T03:30:01.341Z,1002.0618395051835
2022-10-22T03:45:01.968Z,1002.161744353653
2022-10-22T04:00:01.639Z,1002.3516062611516
2022-10-22T04:15:01.293Z,1002.3113975734667
2022-10-22T04:30:01.010Z,1002.2823071967298
2022-10-22T04:45:01.671Z,1002.38114546798
2022-10-22T05:00:01.337Z,1002.4570291168401
2022-10-22T05:15:00.988Z,1002.5025214215166
2022-10-22T05:30:01.867Z,1002.6198657983737
2022-10-22T05:45:01.715Z,1002.6071997179237
2022-10-22T06:00:01.580Z,1002.8021475435635
2022-10-22T06:15:02.334Z,1002.95835057102
2022-10-22T06:30:02.229Z,1003.1011667648338
2022-10-22T07:00:02.525Z,1003.6398870490407
2022-10-22T07:15:02.135Z,1003.7503029827452
2022-10-22T07:30:01.848Z,1003.788800292617
2022-10-22T07:45:02.458Z,1003.8894039760308
2022-10-22T08:00:02.070Z,1004.1035243878651
2022-10-22T08:15:01.757Z,1003.9805946540862
2022-10-22T08:30:01.531Z,1004.1292995543095
2022-10-22T08:45:02.177Z,1004.1895863149547
2022-10-22T09:00:01.842Z,1004.2124114664117
2022-10-22T09:15:01.512Z,1004.3697091400023
2022-10-22T09:30:02.197Z,1004.6208340321366
2022-10-22T09:45:01.860Z,1004.5633438933817
2022-10-22T10:00:01.487Z,1004.8907647893534
2022-10-22T10:15:02.115Z,1005.0627359272527
2022-10-22T10:30:01.848Z,1005.1456522185747
2022-10-22T10:45:01.538Z,1005.1912045446114
2022-10-22T11:00:02.160Z,1005.3437212675686
2022-10-22T11:15:01.808Z,1005.4386009824636
2022-10-22T11:30:01.518Z,1005.3931017149439
2022-10-22T11:45:02.123Z,1005.4346425652692
2022-10-22T12:00:01.777Z,1005.4985859980942
2022-10-22T12:15:01.453Z,1005.5513540138583
2022-10-22T12:30:02.087Z,1005.5114419342469
2022-10-22T12:45:01.757Z,1005.5701290673427
2022-10-22T13:00:01.616Z,1005.5423752244757
2022-10-22T13:15:01.571Z,1005.50664100029
2022-10-22T13:30:02.284Z,1005.6246528539355
2022-10-22T13:45:01.974Z,1005.7444651647413
2022-10-22T14:00:01.682Z,1005.8532504637136
2022-10-22T14:15:01.680Z,1005.9340939433142
2022-10-22T14:30:01.703Z,1006.0600843189291
2022-10-22T14:45:02.368Z,1006.1457658222556
2022-10-22T15:00:02.041Z,1006.1719329481627
2022-10-22T15:15:01.704Z,1006.2663551490892
2022-10-22T15:45:02.046Z,1006.3717585898694
2022-10-22T16:00:01.716Z,1006.2993616968702
2022-10-22T16:15:02.432Z,1006.5420598060524
2022-10-22T16:30:02.099Z,1006.7517548503052
2022-10-22T16:45:01.854Z,1006.8594894383796
2022-10-22T17:00:01.579Z,1007.0009294369852
2022-10-22T17:15:02.247Z,1007.0098616688947
2022-10-22T17:30:01.960Z,1007.0523307275339
2022-10-22T17:45:01.646Z,1007.25053510306
2022-10-22T18:00:02.305Z,1007.4201165458378
2022-10-22T18:15:01.970Z,1007.5668752521917
2022-10-22T18:30:01.676Z,1007.6167924227478
2022-10-22T18:45:02.380Z,1007.6428437648789
2022-10-22T19:00:02.056Z,1007.627934224435
2022-10-22T19:15:01.742Z,1007.4993835076218
2022-10-22T19:30:01.457Z,1007.7660450380929
2022-10-22T19:45:02.089Z,1007.7285886350397
2022-10-22T20:00:01.749Z,1007.6534813301582
2022-10-22T20:15:01.446Z,1007.7231796677723
2022-10-22T20:30:02.184Z,1007.825382101291
2022-10-22T20:45:01.896Z,1007.8453479776558
2022-10-22T21:00:01.542Z,1007.7489807275167
2022-10-22T21:15:02.210Z,1007.5651926782915
2022-10-22T21:30:01.898Z,1007.7296606565449
2022-10-22T21:45:01.727Z,1007.6572305712216
2022-10-22T22:00:01.390Z,1007.7805273661911
2022-10-22T22:15:02.158Z,1007.906132949421
2022-10-22T22:30:02.063Z,1007.9496510392157
2022-10-22T22:45:01.752Z,1007.8562275339366
2022-10-22T23:00:02.411Z,1007.8726502972571
2022-10-22T23:15:02.098Z,1007.7118523484687
2022-10-22T23:30:01.831Z,1007.6283231888539
2022-10-22T23:45:02.484Z,1007.4692432441797
